createdAt,value
2017-11-18T00:02:13.017Z,57.92
2017-11-18T00:04:41.317Z,56.35
2017-11-18T00:07:08.829Z,61.92
2017-11-18T00:09:36.372Z,57.22
2017-11-18T00:12:03.886Z,63.00
2017-11-18T00:14:32.196Z,63.95
2017-11-18T00:16:59.712Z,62.80
2017-11-18T00:19:28.026Z,53.13
2017-11-18T00:21:55.539Z,60.88
2017-11-18T00:24:23.083Z,56.33
2017-11-18T00:26:50.597Z,65.68
2017-11-18T00:29:18.144Z,61.10
2017-11-18T00:31:45.665Z,63.13
2017-11-18T00:34:13.188Z,62.40
2017-11-18T00:36:40.725Z,58.30
2017-11-18T00:39:08.250Z,57.83
2017-11-18T00:41:36.569Z,57.03
2017-11-18T00:44:04.088Z,63.42
2017-11-18T00:46:31.618Z,58.47
2017-11-18T00:48:59.172Z,60.63
2017-11-18T00:51:26.697Z,51.63
2017-11-18T00:53:54.220Z,53.65
2017-11-18T00:56:21.749Z,58.50
2017-11-18T00:58:49.271Z,63.25
2017-11-18T01:01:16.808Z,57.13
2017-11-18T01:03:45.111Z,64.80
2017-11-18T01:06:12.621Z,57.53
2017-11-18T01:08:40.147Z,65.93
2017-11-18T01:11:07.663Z,61.55
2017-11-18T01:13:35.975Z,61.55
2017-11-18T01:16:03.716Z,66.45
2017-11-18T01:18:32.018Z,57.67
2017-11-18T01:20:59.524Z,57.50
2017-11-18T01:23:27.064Z,65.62
2017-11-18T01:25:54.581Z,65.57
2017-11-18T01:28:22.106Z,63.40
2017-11-18T01:30:49.623Z,68.03
2017-11-18T01:33:17.149Z,63.08
2017-11-18T01:35:44.665Z,57.50
2017-11-18T01:38:12.197Z,58.87
2017-11-18T01:40:39.723Z,58.80
2017-11-18T01:43:07.997Z,53.20
2017-11-18T01:45:35.549Z,60.10
2017-11-18T01:48:03.058Z,67.55
2017-11-18T01:50:30.595Z,55.97
2017-11-18T01:52:58.864Z,59.92
2017-11-18T01:55:27.169Z,63.80
2017-11-18T01:57:54.677Z,64.30
2017-11-18T02:00:22.205Z,62.58
2017-11-18T02:02:49.721Z,61.13
2017-11-18T02:05:18.019Z,64.57
2017-11-18T02:07:45.527Z,64.20
2017-11-18T02:10:13.061Z,60.38
2017-11-18T02:12:40.568Z,60.20
2017-11-18T02:15:08.867Z,57.28
2017-11-18T02:17:36.373Z,63.13
2017-11-18T02:20:03.940Z,60.42
2017-11-18T02:22:31.439Z,63.33
2017-11-18T02:24:58.980Z,59.88
2017-11-18T02:27:27.259Z,64.10
2017-11-18T02:29:55.561Z,58.55
2017-11-18T02:32:23.073Z,60.65
2017-11-18T02:34:50.609Z,59.00
2017-11-18T02:37:18.121Z,65.60
2017-11-18T02:39:45.659Z,65.30
2017-11-18T02:42:13.939Z,56.13
2017-11-18T02:44:41.465Z,64.32
2017-11-18T02:47:08.993Z,61.97
2017-11-18T02:49:36.546Z,74.50
2017-11-18T02:52:04.072Z,63.15
2017-11-18T02:54:31.609Z,65.25
2017-11-18T02:56:59.123Z,56.10
2017-11-18T02:59:26.628Z,71.93
2017-11-18T03:01:54.158Z,73.53
2017-11-18T03:04:21.676Z,72.78
2017-11-18T03:06:49.996Z,64.03
2017-11-18T03:09:17.508Z,63.33
2017-11-18T03:11:45.045Z,61.33
2017-11-18T03:14:12.562Z,61.72
2017-11-18T03:16:40.088Z,67.40
2017-11-18T03:19:08.372Z,62.55
2017-11-18T03:21:36.689Z,74.40
2017-11-18T03:24:04.201Z,67.97
2017-11-18T03:26:31.734Z,71.72
2017-11-18T03:28:59.253Z,69.85
2017-11-18T03:31:26.785Z,58.92
2017-11-18T03:33:54.298Z,69.78
2017-11-18T03:36:21.823Z,74.60
2017-11-18T03:38:49.333Z,65.12
2017-11-18T03:41:16.868Z,64.22
2017-11-18T03:43:44.383Z,57.38
2017-11-18T03:46:12.681Z,62.10
2017-11-18T03:48:40.197Z,64.50
2017-11-18T03:51:07.736Z,61.13
2017-11-18T03:53:35.239Z,64.15
2017-11-18T03:56:03.547Z,61.70
2017-11-18T03:58:31.067Z,61.80
2017-11-18T04:00:58.592Z,64.80
2017-11-18T04:03:26.097Z,61.28
2017-11-18T04:05:53.625Z,70.95
2017-11-18T04:08:21.136Z,65.40
2017-11-18T04:10:48.672Z,69.50
2017-11-18T04:13:16.955Z,67.00
2017-11-18T04:15:44.494Z,64.68
2017-11-18T04:18:12.008Z,62.00
2017-11-18T04:20:39.549Z,60.08
2017-11-18T04:23:07.071Z,60.90
2017-11-18T04:25:35.376Z,64.07
2017-11-18T04:28:02.900Z,64.78
2017-11-18T04:30:30.422Z,64.40
2017-11-18T04:32:57.952Z,57.55
2017-11-18T04:35:25.471Z,71.53
2017-11-18T04:37:53.013Z,72.00
2017-11-18T04:40:20.542Z,70.10
2017-11-18T04:42:48.076Z,70.78
2017-11-18T04:45:16.351Z,71.05
2017-11-18T04:47:44.647Z,67.70
2017-11-18T04:50:12.154Z,75.12
2017-11-18T04:52:39.688Z,66.45
2017-11-18T04:55:07.207Z,71.37
2017-11-18T04:57:35.510Z,68.10
2017-11-18T05:00:03.039Z,72.53
2017-11-18T05:02:30.569Z,66.60
2017-11-18T05:04:58.088Z,68.75
2017-11-18T05:07:25.637Z,68.37
2017-11-18T05:09:53.152Z,76.80
2017-11-18T05:12:20.699Z,68.65
2017-11-18T05:14:48.208Z,71.35
2017-11-18T05:17:16.485Z,69.68
2017-11-18T05:19:44.793Z,71.00
2017-11-18T05:22:13.088Z,74.62
2017-11-18T05:24:40.625Z,87.50
2017-11-18T05:27:08.135Z,76.50
2017-11-18T05:29:35.676Z,76.50
2017-11-18T05:32:03.188Z,83.32
2017-11-18T05:34:30.719Z,81.63
2017-11-18T05:36:58.232Z,87.72
2017-11-18T05:39:26.540Z,91.40
2017-11-18T05:41:54.060Z,96.82
2017-11-18T05:44:21.613Z,84.47
2017-11-18T05:46:49.124Z,93.93
2017-11-18T05:49:16.632Z,93.12
2017-11-18T05:51:44.177Z,106.10
2017-11-18T05:54:12.452Z,99.13
2017-11-18T05:56:40.751Z,100.40
2017-11-18T05:59:08.260Z,113.78
2017-11-18T06:01:35.807Z,98.95
2017-11-18T06:04:03.317Z,101.40
2017-11-18T06:06:30.848Z,109.63
2017-11-18T06:08:58.361Z,101.47
2017-11-18T06:11:25.902Z,107.05
2017-11-18T06:13:53.471Z,95.15
2017-11-18T06:16:21.001Z,97.03
2017-11-18T06:18:49.297Z,97.75
2017-11-18T06:21:16.811Z,96.80
2017-11-18T06:23:44.340Z,98.32
2017-11-18T06:26:11.864Z,94.07
2017-11-18T06:28:39.392Z,106.82
2017-11-18T06:31:07.682Z,93.37
2017-11-18T06:33:35.981Z,105.20
2017-11-18T06:36:03.488Z,97.40
2017-11-18T06:38:31.028Z,111.80
2017-11-18T06:40:58.555Z,122.55
2017-11-18T06:43:26.088Z,104.60
2017-11-18T06:45:53.617Z,110.03
2017-11-18T06:48:21.157Z,119.55
2017-11-18T06:50:48.677Z,118.30
2017-11-18T06:53:16.973Z,109.75
2017-11-18T06:55:44.505Z,91.32
2017-11-18T06:58:12.035Z,109.10
2017-11-18T07:00:39.552Z,102.85
2017-11-18T07:03:07.131Z,102.93
2017-11-18T07:05:34.657Z,97.82
2017-11-18T07:08:02.964Z,107.12
2017-11-18T07:10:31.391Z,93.10
2017-11-18T07:12:58.921Z,94.75
2017-11-18T07:15:26.436Z,90.70
2017-11-18T07:17:54.731Z,85.82
2017-11-18T07:20:22.244Z,85.62
2017-11-18T07:22:49.760Z,86.80
2017-11-18T07:25:17.280Z,84.00
2017-11-18T07:27:45.581Z,75.90
2017-11-18T07:30:13.097Z,80.85
2017-11-18T07:32:40.625Z,72.03
2017-11-18T07:35:08.138Z,76.07
2017-11-18T07:37:36.438Z,71.93
2017-11-18T07:40:03.955Z,64.03
2017-11-18T07:42:31.479Z,58.67
2017-11-18T07:44:58.995Z,62.90
2017-11-18T07:47:27.293Z,63.00
2017-11-18T07:49:54.812Z,65.32
2017-11-18T07:52:22.343Z,68.62
2017-11-18T07:54:49.864Z,61.30
2017-11-18T07:57:17.380Z,50.05
2017-11-18T07:59:44.912Z,61.17
2017-11-18T08:02:13.192Z,45.20
2017-11-18T08:04:40.725Z,50.45
2017-11-18T08:07:08.248Z,39.83
2017-11-18T08:09:35.783Z,50.65
2017-11-18T08:12:03.308Z,52.20
2017-11-18T08:14:30.853Z,40.78
2017-11-18T08:16:59.129Z,42.90
2017-11-18T08:19:27.441Z,41.92
2017-11-18T08:21:54.961Z,34.80
2017-11-18T08:24:23.258Z,33.55
2017-11-18T08:26:50.774Z,45.12
2017-11-18T08:29:18.308Z,38.47
2017-11-18T08:31:45.823Z,38.97
2017-11-18T08:34:13.355Z,34.53
2017-11-18T08:36:41.686Z,37.63
2017-11-18T08:39:09.219Z,36.72
2017-11-18T08:41:36.736Z,33.30
2017-11-18T08:44:04.264Z,37.88
2017-11-18T08:46:31.779Z,31.55
2017-11-18T08:49:00.055Z,36.85
2017-11-18T08:51:28.358Z,35.60
2017-11-18T08:53:55.868Z,29.17
2017-11-18T08:56:23.385Z,31.83
2017-11-18T08:58:50.896Z,27.17
2017-11-18T09:01:18.420Z,39.25
2017-11-18T09:03:45.932Z,31.65
2017-11-18T09:06:14.260Z,32.13
2017-11-18T09:08:41.786Z,32.33
2017-11-18T09:11:09.313Z,32.30
2017-11-18T09:13:36.824Z,30.02
2017-11-18T09:16:04.360Z,31.48
2017-11-18T09:18:31.868Z,28.98
2017-11-18T09:20:59.400Z,34.17
2017-11-18T09:23:26.908Z,28.42
2017-11-18T09:25:54.431Z,27.70
2017-11-18T09:28:21.952Z,27.75
2017-11-18T09:30:49.491Z,27.73
2017-11-18T09:33:17.006Z,33.90
2017-11-18T09:35:44.544Z,23.75
2017-11-18T09:38:12.070Z,32.35
2017-11-18T09:40:39.598Z,31.25
2017-11-18T09:43:07.110Z,25.10
2017-11-18T09:45:35.429Z,31.33
2017-11-18T09:48:02.932Z,28.10
2017-11-18T09:50:31.220Z,25.95
2017-11-18T09:52:59.504Z,32.80
2017-11-18T09:55:27.010Z,28.02
2017-11-18T09:57:54.536Z,28.35
2017-11-18T10:00:22.049Z,30.73
2017-11-18T10:02:49.574Z,27.27
2017-11-18T10:05:17.093Z,30.70
2017-11-18T10:07:45.392Z,28.92
2017-11-18T10:10:12.905Z,34.90
2017-11-18T10:12:40.435Z,27.45
2017-11-18T10:15:07.952Z,34.40
2017-11-18T10:17:35.495Z,27.52
2017-11-18T10:20:03.019Z,28.58
2017-11-18T10:22:30.553Z,27.15
2017-11-18T10:24:58.064Z,34.33
2017-11-18T10:27:25.600Z,28.73
2017-11-18T10:29:53.103Z,29.55
2017-11-18T10:32:20.650Z,26.98
2017-11-18T10:34:48.941Z,26.67
2017-11-18T10:37:17.237Z,24.70
2017-11-18T10:39:44.756Z,24.25
2017-11-18T10:42:12.299Z,22.83
2017-11-18T10:44:39.804Z,20.15
2017-11-18T10:47:07.311Z,20.17
2017-11-18T10:49:34.827Z,19.98
2017-11-18T10:52:02.329Z,16.35
2017-11-18T10:54:29.848Z,19.98
2017-11-18T10:56:57.367Z,18.48
2017-11-18T10:59:24.888Z,18.12
2017-11-18T11:01:52.386Z,23.02
2017-11-18T11:04:19.910Z,20.88
2017-11-18T11:06:47.420Z,14.70
2017-11-18T11:09:15.716Z,15.75
2017-11-18T11:11:43.235Z,17.83
2017-11-18T11:14:10.775Z,11.93
2017-11-18T11:16:38.287Z,19.95
2017-11-18T11:19:05.815Z,18.95
2017-11-18T11:21:33.308Z,20.50
2017-11-18T11:24:00.828Z,13.70
2017-11-18T11:26:28.341Z,14.60
2017-11-18T11:28:55.868Z,16.45
2017-11-18T11:31:24.180Z,12.20
2017-11-18T11:33:52.484Z,13.20
2017-11-18T11:36:19.996Z,16.92
2017-11-18T11:38:47.526Z,13.15
2017-11-18T11:41:15.048Z,17.60
2017-11-18T11:43:43.392Z,15.05
2017-11-18T11:46:10.929Z,17.90
2017-11-18T11:48:38.437Z,20.10
2017-11-18T11:51:05.960Z,20.23
2017-11-18T11:53:34.236Z,15.27
2017-11-18T11:56:02.539Z,23.02
2017-11-18T11:58:30.063Z,20.75
2017-11-18T12:00:57.600Z,32.72
2017-11-18T12:03:25.100Z,33.75
2017-11-18T12:05:53.420Z,29.55
2017-11-18T12:08:20.929Z,37.60
2017-11-18T12:10:49.221Z,39.05
2017-11-18T12:13:16.749Z,36.70
2017-11-18T12:15:44.270Z,23.38
2017-11-18T12:18:11.788Z,23.50
2017-11-18T12:20:39.332Z,17.80
2017-11-18T12:23:06.839Z,15.98
2017-11-18T12:25:34.368Z,19.67
2017-11-18T12:28:02.644Z,20.42
2017-11-18T12:30:30.167Z,19.98
2017-11-18T12:32:57.686Z,15.40
2017-11-18T12:35:25.205Z,19.45
2017-11-18T12:37:52.716Z,17.45
2017-11-18T12:40:20.217Z,20.77
2017-11-18T12:42:47.755Z,20.37
2017-11-18T12:45:15.266Z,17.65
2017-11-18T12:47:42.793Z,23.40
2017-11-18T12:50:10.312Z,24.33
2017-11-18T12:52:37.843Z,21.45
2017-11-18T12:55:05.366Z,19.45
2017-11-18T12:57:32.888Z,22.35
2017-11-18T13:00:00.401Z,16.52
2017-11-18T13:02:28.709Z,15.40
2017-11-18T13:04:56.236Z,21.00
2017-11-18T13:07:24.520Z,16.75
2017-11-18T13:09:52.797Z,17.52
2017-11-18T13:12:21.085Z,17.95
2017-11-18T13:14:49.358Z,16.80
2017-11-18T13:17:16.884Z,20.85
2017-11-18T13:19:44.403Z,21.25
2017-11-18T13:22:11.930Z,18.45
2017-11-18T13:24:40.199Z,21.62
2017-11-18T13:27:08.495Z,18.17
2017-11-18T13:29:36.002Z,21.60
2017-11-18T13:32:03.553Z,20.30
2017-11-18T13:34:31.060Z,17.95
2017-11-18T13:36:59.373Z,21.08
2017-11-18T13:39:26.888Z,21.10
2017-11-18T13:41:55.162Z,24.30
2017-11-18T13:44:23.465Z,20.40
2017-11-18T13:46:51.612Z,17.65
2017-11-18T13:49:19.915Z,16.17
2017-11-18T13:51:48.200Z,21.40
2017-11-18T13:54:15.721Z,23.23
2017-11-18T13:56:43.246Z,18.65
2017-11-18T13:59:10.781Z,21.90
2017-11-18T14:01:38.289Z,20.52
2017-11-18T14:04:05.813Z,20.17
2017-11-18T14:06:33.323Z,19.98
2017-11-18T14:09:00.857Z,19.77
2017-11-18T14:11:28.387Z,19.62
2017-11-18T14:13:55.909Z,20.62
2017-11-18T14:16:24.192Z,18.98
2017-11-18T14:18:51.722Z,18.70
2017-11-18T14:21:19.238Z,22.58
2017-11-18T14:23:46.770Z,19.73
2017-11-18T14:26:14.273Z,18.37
2017-11-18T14:28:41.792Z,18.77
2017-11-18T14:31:10.069Z,18.33
2017-11-18T14:33:37.601Z,19.85
2017-11-18T14:36:05.117Z,19.83
2017-11-18T14:38:32.624Z,18.30
2017-11-18T14:41:00.145Z,22.98
2017-11-18T14:43:27.654Z,17.95
2017-11-18T14:45:55.945Z,23.08
2017-11-18T14:48:23.459Z,18.48
2017-11-18T14:50:50.993Z,16.83
2017-11-18T14:53:18.492Z,18.30
2017-11-18T14:55:46.017Z,20.58
2017-11-18T14:58:13.525Z,18.73
2017-11-18T15:00:41.819Z,18.00
2017-11-18T15:03:09.327Z,14.80
2017-11-18T15:05:36.848Z,15.40
2017-11-18T15:08:04.405Z,19.98
2017-11-18T15:10:31.931Z,16.15
2017-11-18T15:12:59.447Z,17.12
2017-11-18T15:18:49.573Z,14.13
2017-11-18T15:24:28.364Z,14.05
2017-11-18T15:27:02.286Z,18.85
2017-11-18T15:29:36.256Z,16.90
2017-11-18T15:35:13.989Z,15.50
2017-11-18T15:37:56.100Z,15.00
2017-11-18T15:40:24.368Z,14.07
2017-11-18T15:42:52.661Z,13.38
2017-11-18T15:45:20.632Z,15.23
2017-11-18T15:47:53.798Z,11.82
2017-11-18T15:50:24.743Z,17.98
2017-11-18T15:56:15.878Z,13.70
2017-11-18T15:58:49.639Z,14.55
2017-11-18T16:01:22.871Z,13.02
2017-11-18T16:03:54.477Z,19.90
2017-11-18T16:09:27.767Z,16.48
2017-11-18T16:11:55.284Z,16.67
2017-11-18T16:14:22.808Z,14.50
2017-11-18T16:16:50.318Z,15.38
2017-11-18T16:19:17.836Z,12.82
2017-11-18T16:21:45.340Z,12.73
2017-11-18T16:24:13.654Z,17.15
2017-11-18T16:26:41.176Z,13.62
2017-11-18T16:29:09.470Z,17.00
2017-11-18T16:31:37.740Z,17.00
2017-11-18T16:34:05.258Z,12.82
2017-11-18T16:36:32.772Z,15.10
2017-11-18T16:39:00.290Z,14.43
2017-11-18T16:41:27.814Z,12.05
2017-11-18T16:43:55.383Z,14.73
2017-11-18T16:46:22.929Z,14.52
2017-11-18T16:48:50.432Z,13.02
2017-11-18T16:51:17.953Z,13.57
2017-11-18T16:53:45.482Z,12.57
2017-11-18T16:56:13.002Z,13.55
2017-11-18T16:58:40.507Z,17.95
2017-11-18T17:01:08.033Z,13.62
2017-11-18T17:03:35.540Z,16.25
2017-11-18T17:06:03.064Z,11.85
2017-11-18T17:08:31.340Z,13.23
2017-11-18T17:10:59.641Z,10.98
2017-11-18T17:13:27.140Z,12.23
2017-11-18T17:15:54.677Z,14.77
2017-11-18T17:18:22.196Z,13.35
2017-11-18T17:20:50.494Z,12.37
2017-11-18T17:23:18.016Z,13.88
2017-11-18T17:25:46.813Z,12.80
2017-11-18T17:28:15.109Z,14.57
2017-11-18T17:30:43.402Z,13.38
2017-11-18T17:33:23.340Z,12.00
2017-11-18T17:35:50.872Z,16.98
2017-11-18T17:38:18.368Z,11.15
2017-11-18T17:40:45.897Z,11.00
2017-11-18T17:43:13.396Z,11.38
2017-11-18T17:45:40.904Z,13.88
2017-11-18T17:48:08.423Z,10.15
2017-11-18T17:50:35.927Z,11.43
2017-11-18T17:53:03.443Z,10.30
2017-11-18T17:55:30.975Z,10.15
2017-11-18T17:57:58.516Z,12.32
2017-11-18T18:00:26.809Z,8.45
2017-11-18T18:02:55.100Z,9.60
2017-11-18T18:05:22.612Z,8.73
2017-11-18T18:07:50.130Z,8.00
2017-11-18T18:10:17.637Z,8.45
2017-11-18T18:12:45.167Z,8.60
2017-11-18T18:15:12.688Z,7.93
2017-11-18T18:17:40.215Z,9.82
2017-11-18T18:20:07.722Z,7.97
2017-11-18T18:22:35.241Z,9.68
2017-11-18T18:25:03.518Z,11.85
2017-11-18T18:27:31.081Z,8.80
2017-11-18T18:29:58.583Z,10.55
2017-11-18T18:32:26.103Z,9.85
2017-11-18T18:34:53.616Z,11.40
2017-11-18T18:37:21.132Z,9.80
2017-11-18T18:39:49.399Z,9.10
2017-11-18T18:42:16.915Z,9.52
2017-11-18T18:44:45.183Z,9.38
2017-11-18T18:47:12.688Z,11.02
2017-11-18T18:49:40.221Z,9.07
2017-11-18T18:52:07.739Z,10.10
2017-11-18T18:54:36.032Z,11.23
2017-11-18T18:57:03.547Z,11.90
2017-11-18T18:59:31.072Z,11.63
2017-11-18T19:01:58.574Z,10.57
2017-11-18T19:04:26.093Z,10.88
2017-11-18T19:06:53.596Z,11.05
2017-11-18T19:09:21.120Z,12.48
2017-11-18T19:11:48.627Z,10.02
2017-11-18T19:14:16.917Z,11.20
2017-11-18T19:16:44.416Z,13.18
2017-11-18T19:19:11.934Z,9.52
2017-11-18T19:21:39.440Z,12.93
2017-11-18T19:24:06.960Z,10.48
2017-11-18T19:26:34.472Z,10.68
2017-11-18T19:29:01.997Z,11.75
2017-11-18T19:31:29.499Z,11.52
2017-11-18T19:33:57.008Z,9.77
2017-11-18T19:36:24.505Z,11.70
2017-11-18T19:38:52.034Z,9.85
2017-11-18T19:41:19.543Z,8.73
2017-11-18T19:43:47.828Z,11.95
2017-11-18T19:46:16.092Z,13.32
2017-11-18T19:48:43.608Z,12.43
2017-11-18T19:51:11.116Z,10.15
2017-11-18T19:53:39.408Z,11.60
2017-11-18T19:56:06.928Z,10.20
2017-11-18T19:58:34.478Z,12.50
2017-11-18T20:01:01.986Z,14.98
2017-11-18T20:03:30.264Z,11.07
2017-11-18T20:05:57.806Z,10.48
2017-11-18T20:08:25.306Z,10.02
2017-11-18T20:10:52.841Z,12.32
2017-11-18T20:13:20.345Z,16.50
2017-11-18T20:15:47.874Z,11.23
2017-11-18T20:18:15.387Z,15.60
2017-11-18T20:20:42.944Z,14.52
2017-11-18T20:23:11.304Z,13.38
2017-11-18T20:25:38.850Z,16.62
2017-11-18T20:28:06.371Z,17.55
2017-11-18T20:30:33.911Z,18.60
2017-11-18T20:33:02.182Z,17.42
2017-11-18T20:35:29.722Z,20.35
2017-11-18T20:37:57.274Z,19.17
2017-11-18T20:40:24.845Z,39.30
2017-11-18T20:42:52.355Z,27.62
2017-11-18T20:45:19.857Z,30.83
2017-11-18T20:47:47.416Z,21.95
2017-11-18T20:50:14.931Z,26.87
2017-11-18T20:52:42.473Z,24.40
2017-11-18T20:55:10.008Z,20.00
2017-11-18T20:57:37.536Z,20.30
2017-11-18T21:00:05.071Z,20.30
2017-11-18T21:02:32.632Z,21.92
2017-11-18T21:05:00.143Z,24.52
2017-11-18T21:07:27.668Z,23.33
2017-11-18T21:09:55.187Z,22.08
2017-11-18T21:12:23.480Z,20.95
2017-11-18T21:14:50.996Z,18.00
2017-11-18T21:17:18.516Z,19.25
2017-11-18T21:19:46.028Z,17.60
2017-11-18T21:22:14.384Z,17.17
2017-11-18T21:24:41.892Z,17.40
2017-11-18T21:27:09.449Z,19.73
2017-11-18T21:29:37.724Z,21.83
2017-11-18T21:32:06.008Z,20.45
2017-11-18T21:34:33.564Z,21.35
2017-11-18T21:37:01.844Z,18.10
2017-11-18T21:39:30.144Z,18.80
2017-11-18T21:41:57.656Z,18.23
2017-11-18T21:44:25.202Z,22.73
2017-11-18T21:46:52.708Z,16.33
2017-11-18T21:49:20.240Z,17.95
2017-11-18T21:51:48.507Z,20.70
2017-11-18T21:54:16.030Z,16.75
2017-11-18T21:56:43.536Z,13.60
2017-11-18T21:59:11.811Z,17.15
2017-11-18T22:01:39.337Z,21.40
2017-11-18T22:04:06.852Z,18.05
2017-11-18T22:06:34.381Z,16.20
2017-11-18T22:09:01.896Z,14.85
2017-11-18T22:11:29.423Z,19.60
2017-11-18T22:13:57.695Z,13.38
2017-11-18T22:16:25.980Z,15.23
2017-11-18T22:18:53.486Z,14.32
2017-11-18T22:21:21.005Z,14.20
2017-11-18T22:23:48.516Z,17.50
2017-11-18T22:26:16.044Z,15.25
2017-11-18T22:28:43.556Z,14.98
2017-11-18T22:31:11.839Z,14.38
2017-11-18T22:33:40.108Z,14.18
2017-11-18T22:36:08.395Z,13.68
2017-11-18T22:38:36.664Z,15.43
2017-11-18T22:41:04.184Z,14.45
2017-11-18T22:43:31.699Z,11.95
2017-11-18T22:45:59.234Z,12.40
2017-11-18T22:48:26.744Z,15.70
2017-11-18T22:50:54.253Z,11.93
2017-11-18T22:53:21.779Z,14.75
2017-11-18T22:55:49.290Z,13.95
2017-11-18T22:58:17.596Z,10.85
2017-11-18T23:00:45.112Z,10.68
2017-11-18T23:03:13.408Z,15.45
2017-11-18T23:05:40.920Z,11.70
2017-11-18T23:08:08.459Z,11.57
2017-11-18T23:10:35.965Z,13.07
2017-11-18T23:13:03.499Z,10.73
2017-11-18T23:15:31.005Z,13.43
2017-11-18T23:17:58.528Z,10.93
2017-11-18T23:20:26.057Z,13.60
2017-11-18T23:22:53.566Z,12.10
2017-11-18T23:25:21.876Z,9.75
2017-11-18T23:27:49.368Z,9.32
2017-11-18T23:30:16.912Z,11.40
2017-11-18T23:32:44.423Z,14.98
2017-11-18T23:35:12.724Z,11.27
2017-11-18T23:37:40.235Z,10.70
2017-11-18T23:40:07.762Z,12.37
2017-11-18T23:42:35.265Z,10.63
2017-11-18T23:45:02.792Z,10.13
2017-11-18T23:47:30.309Z,10.73
2017-11-18T23:49:57.818Z,10.90
2017-11-18T23:52:25.343Z,11.57
2017-11-18T23:54:52.856Z,10.90
2017-11-18T23:57:20.379Z,10.13
2017-11-18T23:59:47.877Z,11.88
